Terminal Aerodrome Forecast
Issued by NWS Wilmington, NC

Home | Current Version | Previous Version | Text Only | Print | Product List | Glossary On
Versions: 1 2 3 4 5 6 7 8 9 10 11 12 13 14 15 16 17 18 19 20 21 22 23 24 25 26 27 28
000
FTUS42 KILM 190627 CCA
TAFFLO
TAF COR
KFLO 190627Z 1906/2006 17013KT P6SM VCSH BKN015 OVC025
     FM191400 18016G27KT P6SM VCTS SCT015CB BKN025 OVC040
     FM192000 19020G30KT 5SM -TSRA BKN015CB OVC025
      TEMPO 1921/2001 VRB30G50KT 1SM TSRA BKN012CB
     FM200200 21015G25KT 6SM -SHRA OVC020=

USA.gov is the U.S. government's official web portal to all federal, state and local government web resources and services.